^^
Saratoga-Weather Station Historical Data
Daily Summary for August 20, 2020 Units:  Metric    English   Both
Daily Weekly Monthly Yearly Custom
  High: Low: Average:
Temperature: 5.7 °C 0.6 °C 3.1 °C
Dew Point: 2.2 °C -1.3 °C 0.7 °C
Humidity: 93% 73% 84%
Wind Speed: 22.5km/h 0km/h 1.9km/h
Wind Gust: 22.5km/h - -
Wind- - East
Pressure: 1046.4 hPa 1043.3 hPa -
Precipitation: 0.2 mm    
Historical Graphs
 
 
Tabular Data for August 20, 2020
Time Temperature Dew Point Pressure Wind Wind Speed Wind Gust Humidity Rainfall Rate (Hourly) solar
00:01 3.9 °C 2.1 °C 1044.4 hPa Calm   6.4 km/h 88% 0.0 mm 0 W/m2
00:06 3.9 °C 2.1 °C 1044.4 hPa Calm     88% 0.0 mm 0 W/m2
00:11 3.9 °C 2.1 °C 1044.4 hPa Calm     88% 0.0 mm 0 W/m2
00:16 4 °C 2.2 °C 1044.4 hPa Calm   4.8 km/h 88% 0.0 mm 0 W/m2
00:21 4 °C 2.2 °C 1044.4 hPa Calm   6.4 km/h 88% 0.0 mm 0 W/m2
00:26 4 °C 2.2 °C 1044.4 hPa Calm     88% 0.0 mm 0 W/m2
00:31 4 °C 2.2 °C 1044.4 hPa Calm   1.6 km/h 88% 0.0 mm 0 W/m2
00:36 4 °C 2.2 °C 1044.4 hPa NNE 4.7 km/h 4.8 km/h 88% 0.0 mm 0 W/m2
00:41 3.9 °C 2.1 °C 1044.4 hPa North 9.7 km/h 16.1 km/h 88% 0.0 mm 0 W/m2
00:46 3.9 °C 2.1 °C 1044.4 hPa Calm   4.8 km/h 88% 0.0 mm 0 W/m2
00:51 3.9 °C 1.9 °C 1044.4 hPa Calm     87% 0.0 mm 0 W/m2
00:56 3.9 °C 2.1 °C 1044.4 hPa Calm     88% 0.0 mm 0 W/m2
01:01 3.8 °C 2 °C 1044.4 hPa Calm   4.8 km/h 88% 0.0 mm 0 W/m2
01:06 3.8 °C 2 °C 1044.4 hPa Calm   6.4 km/h 88% 0.0 mm 0 W/m2
01:11 3.8 °C 2 °C 1044.4 hPa Calm     88% 0.0 mm 0 W/m2
01:16 3.8 °C 2 °C 1044.4 hPa Calm   6.4 km/h 88% 0.0 mm 0 W/m2
01:21 3.8 °C 2 °C 1044.4 hPa NNW 8 km/h 8 km/h 88% 0.0 mm 0 W/m2
01:26 3.8 °C 2 °C 1044.4 hPa North 1.4 km/h 1.6 km/h 88% 0.0 mm 0 W/m2
01:31 3.8 °C 2 °C 1044.4 hPa Calm     88% 0.0 mm 0 W/m2
01:36 3.9 °C 2.1 °C 1044.4 hPa Calm   11.3 km/h 88% 0.0 mm 0 W/m2
01:41 3.9 °C 2.1 °C 1044.4 hPa Calm   4.8 km/h 88% 0.0 mm 0 W/m2
01:46 3.8 °C 2 °C 1044.4 hPa Calm     88% 0.0 mm 0 W/m2
01:51 3.8 °C 2 °C 1044.4 hPa NW 1.4 km/h 12.9 km/h 88% 0.0 mm 0 W/m2
01:56 3.8 °C 2 °C 1044.4 hPa NW 4.7 km/h 6.4 km/h 88% 0.0 mm 0 W/m2
02:01 3.7 °C 1.9 °C 1044.4 hPa NE 4.7 km/h 4.8 km/h 88% 0.0 mm 0 W/m2
02:06 3.7 °C 1.9 °C 1044.4 hPa Calm   3.2 km/h 88% 0.0 mm 0 W/m2
02:11 3.7 °C 1.9 °C 1044.4 hPa Calm   1.6 km/h 88% 0.0 mm 0 W/m2
02:16 3.6 °C 1.8 °C 1044.4 hPa Calm   1.6 km/h 88% 0.0 mm 0 W/m2
02:21 3.6 °C 1.8 °C 1044.4 hPa NE 6.4 km/h 8 km/h 88% 0.0 mm 0 W/m2
02:26 3.6 °C 1.8 °C 1044.4 hPa Calm   1.6 km/h 88% 0.0 mm 0 W/m2
02:31 3.6 °C 1.8 °C 1044.4 hPa Calm   3.2 km/h 88% 0.0 mm 0 W/m2
02:36 3.7 °C 1.9 °C 1044.4 hPa Calm   1.6 km/h 88% 0.0 mm 0 W/m2
02:41 3.7 °C 1.9 °C 1044.7 hPa Calm   8 km/h 88% 0.0 mm 0 W/m2
02:47 3.7 °C 1.9 °C 1044.7 hPa Calm     88% 0.0 mm 0 W/m2
02:52 3.7 °C 1.9 °C 1044.7 hPa NNW 3.2 km/h 3.2 km/h 88% 0.0 mm 0 W/m2
02:57 3.7 °C 1.9 °C 1044.7 hPa NNW 1.4 km/h 8 km/h 88% 0.0 mm 0 W/m2
03:02 3.7 °C 1.9 °C 1044.7 hPa North 3.2 km/h 4.8 km/h 88% 0.0 mm 0 W/m2
03:07 3.6 °C 1.8 °C 1044.7 hPa NNE 3.2 km/h 11.3 km/h 88% 0.0 mm 0 W/m2
03:12 3.6 °C 1.8 °C 1044.7 hPa Calm   1.6 km/h 88% 0.0 mm 0 W/m2
03:17 3.6 °C 1.6 °C 1044.7 hPa NE 3.2 km/h 11.3 km/h 87% 0.0 mm 0 W/m2
03:22 3.6 °C 1.8 °C 1044.7 hPa NNE 1.4 km/h 3.2 km/h 88% 0.0 mm 0 W/m2
03:27 3.6 °C 1.6 °C 1044.7 hPa Calm   6.4 km/h 87% 0.0 mm 0 W/m2
03:32 3.6 °C 1.8 °C 1044.7 hPa NNE 3.2 km/h 6.4 km/h 88% 0.0 mm 0 W/m2
03:37 3.6 °C 1.8 °C 1044.7 hPa Calm   3.2 km/h 88% 0.0 mm 0 W/m2
03:42 3.6 °C 1.8 °C 1044.4 hPa Calm   3.2 km/h 88% 0.0 mm 0 W/m2
03:47 3.6 °C 1.8 °C 1044.4 hPa Calm   11.3 km/h 88% 0.0 mm 0 W/m2
03:52 3.6 °C 1.8 °C 1044.4 hPa Calm   8 km/h 88% 0.0 mm 0 W/m2
03:57 3.6 °C 1.8 °C 1044.4 hPa Calm   8 km/h 88% 0.0 mm 0 W/m2
04:02 3.6 °C 1.8 °C 1044.4 hPa Calm   6.4 km/h 88% 0.0 mm 0 W/m2
04:08 3.6 °C 1.8 °C 1044.4 hPa Calm   1.6 km/h 88% 0.0 mm 0 W/m2
04:13 3.6 °C 1.8 °C 1044.4 hPa Calm   1.6 km/h 88% 0.0 mm 0 W/m2
04:18 3.6 °C 1.8 °C 1044.4 hPa Calm   1.6 km/h 88% 0.0 mm 0 W/m2
04:23 3.6 °C 1.6 °C 1044.4 hPa North 1.4 km/h 3.2 km/h 87% 0.0 mm 0 W/m2
04:28 3.6 °C 1.6 °C 1044.4 hPa North 1.4 km/h 4.8 km/h 87% 0.0 mm 0 W/m2
04:33 3.6 °C 1.6 °C 1044.4 hPa Calm   8 km/h 87% 0.0 mm 0 W/m2
04:38 3.6 °C 1.8 °C 1044.4 hPa Calm   6.4 km/h 88% 0.0 mm 0 W/m2
04:43 3.4 °C 1.4 °C 1044.4 hPa NNE 1.4 km/h 6.4 km/h 87% 0.0 mm 0 W/m2
04:48 3.3 °C 1.5 °C 1044.4 hPa Calm   12.9 km/h 88% 0.0 mm 0 W/m2
04:53 3.3 °C 1.5 °C 1044.4 hPa NNE 1.4 km/h 12.9 km/h 88% 0.0 mm 0 W/m2
04:58 3.2 °C 1.4 °C 1044.4 hPa NNW 3.2 km/h 4.8 km/h 88% 0.0 mm 0 W/m2
05:03 3.2 °C 1.4 °C 1044.7 hPa Calm   9.7 km/h 88% 0.0 mm 0 W/m2
05:08 3.1 °C 1.3 °C 1044.4 hPa Calm   4.8 km/h 88% 0.0 mm 0 W/m2
05:13 3 °C 1.2 °C 1044.7 hPa Calm     88% 0.0 mm 0 W/m2
05:18 2.9 °C 1.1 °C 1044.4 hPa NW 1.4 km/h 6.4 km/h 88% 0.0 mm 0 W/m2
05:23 2.8 °C 1 °C 1044.4 hPa North 1.4 km/h 9.7 km/h 88% 0.0 mm 0 W/m2
05:28 2.7 °C 0.9 °C 1044.4 hPa Calm   1.6 km/h 88% 0.2 mm 0 W/m2
05:33 2.7 °C 1.1 °C 1044.4 hPa Calm   3.2 km/h 89% 0.2 mm 0 W/m2
05:38 2.6 °C 1 °C 1044.4 hPa Calm     89% 0.2 mm 0 W/m2
05:43 2.6 °C 1 °C 1044.4 hPa Calm   3.2 km/h 89% 0.2 mm 0 W/m2
05:48 2.5 °C 0.9 °C 1044.4 hPa Calm   1.6 km/h 89% 0.2 mm 0 W/m2
05:53 2.4 °C 0.9 °C 1044.7 hPa Calm     90% 0.2 mm 0 W/m2
05:58 2.4 °C 0.9 °C 1044.4 hPa Calm   1.6 km/h 90% 0.2 mm 0 W/m2
06:03 2.3 °C 0.8 °C 1044.4 hPa Calm   1.6 km/h 90% 0.2 mm 0 W/m2
06:08 2.4 °C 0.9 °C 1044.4 hPa Calm   1.6 km/h 90% 0.2 mm 0 W/m2
06:13 2.4 °C 1.1 °C 1044.4 hPa Calm     91% 0.2 mm 0 W/m2
06:18 2.4 °C 1.1 °C 1044.4 hPa Calm   1.6 km/h 91% 0.2 mm 0 W/m2
06:24 2.3 °C 1 °C 1044.7 hPa Calm   3.2 km/h 91% 0.2 mm 0 W/m2
06:29 2.3 °C 1 °C 1044.7 hPa Calm   6.4 km/h 91% 0.0 mm 0 W/m2
06:34 2.3 °C 1 °C 1044.7 hPa Calm   1.6 km/h 91% 0.0 mm 0 W/m2
06:39 2.3 °C 1 °C 1045.0 hPa Calm   4.8 km/h 91% 0.0 mm 0 W/m2
06:44 2.3 °C 1 °C 1045.0 hPa Calm   3.2 km/h 91% 0.0 mm 0 W/m2
06:49 2.2 °C 0.9 °C 1045.0 hPa Calm   6.4 km/h 91% 0.0 mm 0 W/m2
06:54 2.2 °C 0.9 °C 1045.0 hPa Calm   1.6 km/h 91% 0.0 mm 0 W/m2
06:59 2.2 °C 0.9 °C 1045.0 hPa Calm     91% 0.0 mm 0 W/m2
07:04 2.2 °C 0.9 °C 1045.0 hPa Calm   3.2 km/h 91% 0.0 mm 0 W/m2
07:09 2.2 °C 0.9 °C 1045.0 hPa Calm     91% 0.0 mm 0 W/m2
07:14 2.2 °C 0.9 °C 1045.0 hPa Calm   3.2 km/h 91% 0.0 mm 0 W/m2
07:19 2.1 °C 0.8 °C 1045.4 hPa Calm     91% 0.0 mm 0 W/m2
07:24 2.1 °C 0.8 °C 1045.4 hPa Calm     91% 0.0 mm 0 W/m2
07:29 1.9 °C 0.6 °C 1045.4 hPa Calm     91% 0.0 mm 0 W/m2
07:34 1.9 °C 0.6 °C 1045.0 hPa Calm     91% 0.0 mm 0 W/m2
07:39 1.8 °C 0.5 °C 1045.4 hPa Calm   1.6 km/h 91% 0.0 mm 0 W/m2
07:44 1.8 °C 0.5 °C 1045.4 hPa Calm     91% 0.0 mm 0 W/m2
07:49 1.7 °C 0.4 °C 1045.4 hPa Calm     91% 0.0 mm 0 W/m2
07:54 1.7 °C 0.4 °C 1045.4 hPa Calm     91% 0.0 mm 0 W/m2
07:59 1.6 °C 0.4 °C 1045.4 hPa Calm     92% 0.0 mm 0 W/m2
08:04 1.7 °C 0.5 °C 1045.4 hPa Calm     92% 0.0 mm 0 W/m2
08:09 1.7 °C 0.5 °C 1045.4 hPa Calm   1.6 km/h 92% 0.0 mm 0 W/m2
08:14 1.6 °C 0.4 °C 1045.4 hPa Calm   1.6 km/h 92% 0.0 mm 0 W/m2
08:19 1.6 °C 0.4 °C 1045.7 hPa Calm     92% 0.0 mm 0 W/m2
08:24 1.6 °C 0.4 °C 1045.7 hPa Calm   1.6 km/h 92% 0.0 mm 5 W/m2
08:29 1.5 °C 0.3 °C 1045.7 hPa Calm     92% 0.0 mm 7 W/m2
08:34 1.5 °C 0.3 °C 1045.7 hPa Calm     92% 0.0 mm 9 W/m2
08:39 1.5 °C 0.3 °C 1045.7 hPa Calm   1.6 km/h 92% 0.0 mm 11 W/m2
08:44 1.5 °C 0.3 °C 1045.7 hPa Calm     92% 0.0 mm 14 W/m2
08:49 1.5 °C 0.3 °C 1045.7 hPa Calm     92% 0.0 mm 16 W/m2
08:54 1.4 °C 0.2 °C 1045.7 hPa Calm     92% 0.0 mm 18 W/m2
08:59 1.5 °C 0.3 °C 1045.7 hPa Calm     92% 0.0 mm 19 W/m2
09:04 1.4 °C 0.2 °C 1045.7 hPa Calm     92% 0.0 mm 19 W/m2
09:09 1.4 °C 0.2 °C 1045.4 hPa Calm     92% 0.0 mm 21 W/m2
09:14 1.4 °C 0.2 °C 1045.4 hPa Calm     92% 0.0 mm 23 W/m2
09:19 1.4 °C 0.4 °C 1045.4 hPa Calm     93% 0.0 mm 23 W/m2
09:24 1.5 °C 0.5 °C 1045.7 hPa Calm     93% 0.0 mm 25 W/m2
09:29 1.5 °C 0.5 °C 1045.4 hPa Calm     93% 0.0 mm 26 W/m2
09:34 1.6 °C 0.6 °C 1045.4 hPa Calm     93% 0.0 mm 26 W/m2
09:39 1.6 °C 0.6 °C 1045.4 hPa Calm     93% 0.0 mm 32 W/m2
09:44 1.7 °C 0.7 °C 1045.7 hPa Calm     93% 0.0 mm 28 W/m2
09:49 1.7 °C 0.5 °C 1045.7 hPa Calm     92% 0.0 mm 35 W/m2
09:54 1.8 °C 0.6 °C 1045.7 hPa Calm   1.6 km/h 92% 0.0 mm 30 W/m2
09:59 1.8 °C 0.6 °C 1045.7 hPa Calm   1.6 km/h 92% 0.0 mm 32 W/m2
10:04 2 °C 0.8 °C 1045.7 hPa Calm   3.2 km/h 92% 0.0 mm 33 W/m2
10:09 2.1 °C 0.8 °C 1045.7 hPa Calm     91% 0.0 mm 42 W/m2
10:14 2.2 °C 0.9 °C 1046.1 hPa Calm     91% 0.0 mm 33 W/m2
10:19 2.3 °C 0.8 °C 1046.1 hPa Calm     90% 0.0 mm 39 W/m2
10:24 2.4 °C 0.9 °C 1046.1 hPa Calm   1.6 km/h 90% 0.0 mm 35 W/m2
10:29 2.6 °C 1 °C 1046.1 hPa Calm     89% 0.0 mm 39 W/m2
10:34 2.7 °C 1.1 °C 1046.1 hPa Calm   1.6 km/h 89% 0.0 mm 40 W/m2
10:39 2.8 °C 1 °C 1046.1 hPa Calm   1.6 km/h 88% 0.0 mm 39 W/m2
10:44 2.9 °C 1 °C 1046.4 hPa Calm     87% 0.0 mm 40 W/m2
10:49 3.1 °C 1.1 °C 1046.4 hPa Calm     87% 0.0 mm 46 W/m2
10:54 3.4 °C 1.1 °C 1046.4 hPa Calm   12.9 km/h 85% 0.0 mm 42 W/m2
10:59 3.7 °C 1.1 °C 1046.1 hPa Calm   14.5 km/h 83% 0.0 mm 39 W/m2
11:04 4 °C 0.9 °C 1046.1 hPa NE 11.1 km/h 17.7 km/h 80% 0.0 mm 37 W/m2
11:09 4.2 °C 0.5 °C 1046.1 hPa NNE 7.9 km/h 19.3 km/h 77% 0.0 mm 37 W/m2
11:14 4.3 °C 0.6 °C 1046.1 hPa North 3.2 km/h 6.4 km/h 77% 0.0 mm 44 W/m2
11:19 4.4 °C 0.5 °C 1046.1 hPa ENE 22.5 km/h 22.5 km/h 76% 0.0 mm 46 W/m2
11:24 4.4 °C 0.5 °C 1046.1 hPa ENE 14.3 km/h 14.5 km/h 76% 0.0 mm 42 W/m2
11:29 4.4 °C 0.7 °C 1046.1 hPa NNE 7.9 km/h 9.7 km/h 77% 0.0 mm 39 W/m2
11:34 4.4 °C 0.7 °C 1046.1 hPa ENE 6.4 km/h 8 km/h 77% 0.0 mm 42 W/m2
11:39 4.4 °C 0.7 °C 1046.1 hPa ENE 4.7 km/h 9.7 km/h 77% 0.0 mm 47 W/m2
11:44 4.5 °C 0.8 °C 1046.1 hPa NNE 13 km/h 19.3 km/h 77% 0.0 mm 56 W/m2
11:49 4.5 °C 0.8 °C 1046.1 hPa ENE 13 km/h 17.7 km/h 77% 0.0 mm 39 W/m2
11:54 4.5 °C 0.8 °C 1046.1 hPa ESE 6.4 km/h 14.5 km/h 77% 0.0 mm 49 W/m2
11:59 4.5 °C 0.8 °C 1046.1 hPa NE 16.3 km/h 20.9 km/h 77% 0.0 mm 46 W/m2
12:04 4.6 °C 0.9 °C 1045.7 hPa East 1.4 km/h 14.5 km/h 77% 0.0 mm 42 W/m2
12:09 4.6 °C 0.9 °C 1045.7 hPa NE 1.4 km/h 11.3 km/h 77% 0.0 mm 40 W/m2
12:14 4.6 °C 0.9 °C 1045.7 hPa ENE 7.9 km/h 9.7 km/h 77% 0.0 mm 40 W/m2
12:19 4.7 °C 1 °C 1045.7 hPa North 6.4 km/h 16.1 km/h 77% 0.0 mm 60 W/m2
12:24 4.7 °C 1 °C 1045.7 hPa Calm   8 km/h 77% 0.0 mm 54 W/m2
12:29 4.8 °C 1.1 °C 1045.4 hPa Calm   12.9 km/h 77% 0.0 mm 53 W/m2
12:35 4.8 °C 1.1 °C 1045.4 hPa NNE 9.7 km/h 12.9 km/h 77% 0.0 mm 40 W/m2
12:40 4.8 °C 1.1 °C 1045.4 hPa NNE 7.9 km/h 8 km/h 77% 0.0 mm 42 W/m2
12:45 4.8 °C 0.9 °C 1045.4 hPa NNE 4.7 km/h 12.9 km/h 76% 0.0 mm 47 W/m2
12:50 4.9 °C 1 °C 1045.4 hPa Calm   12.9 km/h 76% 0.0 mm 42 W/m2
12:55 4.9 °C 1 °C 1045.0 hPa NNE 6.4 km/h 11.3 km/h 76% 0.0 mm 51 W/m2
13:00 4.9 °C 1 °C 1045.0 hPa NNE 9.7 km/h 16.1 km/h 76% 0.0 mm 39 W/m2
13:05 4.9 °C 0.8 °C 1045.0 hPa NE 7.9 km/h 9.7 km/h 75% 0.0 mm 47 W/m2
13:10 4.9 °C 0.8 °C 1045.0 hPa Calm   16.1 km/h 75% 0.0 mm 39 W/m2
13:15 5 °C 1.1 °C 1045.0 hPa North 4.7 km/h 12.9 km/h 76% 0.0 mm 39 W/m2
13:20 5.1 °C 1 °C 1045.0 hPa East 1.4 km/h 17.7 km/h 75% 0.0 mm 42 W/m2
13:25 5.2 °C 1.1 °C 1045.0 hPa ENE 7.9 km/h 9.7 km/h 75% 0.0 mm 42 W/m2
13:30 5.3 °C 1.2 °C 1044.7 hPa Calm   4.8 km/h 75% 0.0 mm 39 W/m2
13:35 5.3 °C 1.2 °C 1044.7 hPa North 4.7 km/h 12.9 km/h 75% 0.0 mm 33 W/m2
13:40 5.3 °C 1.2 °C 1044.7 hPa ENE 9.7 km/h 11.3 km/h 75% 0.0 mm 37 W/m2
13:45 5.3 °C 1.2 °C 1044.7 hPa NNE 3.2 km/h 8 km/h 75% 0.0 mm 44 W/m2
13:50 5.3 °C 1 °C 1044.7 hPa NNE 4.7 km/h 9.7 km/h 74% 0.0 mm 39 W/m2
13:55 5.4 °C 1.1 °C 1044.7 hPa ENE 3.2 km/h 11.3 km/h 74% 0.0 mm 53 W/m2
14:00 5.4 °C 1.1 °C 1044.7 hPa NE 1.4 km/h 8 km/h 74% 0.0 mm 39 W/m2
14:05 5.5 °C 1.2 °C 1044.7 hPa ENE 4.7 km/h 8 km/h 74% 0.0 mm 40 W/m2
14:10 5.4 °C 1.1 °C 1044.4 hPa NE 6.4 km/h 8 km/h 74% 0.0 mm 37 W/m2
14:15 5.5 °C 1 °C 1044.4 hPa NE 7.9 km/h 14.5 km/h 73% 0.0 mm 47 W/m2
14:20 5.5 °C 1 °C 1044.4 hPa NNE 7.9 km/h 9.7 km/h 73% 0.0 mm 46 W/m2
14:25 5.6 °C 1.3 °C 1044.4 hPa NNE 4.7 km/h 8 km/h 74% 0.0 mm 42 W/m2
14:30 5.6 °C 1.5 °C 1044.4 hPa North 1.4 km/h 6.4 km/h 75% 0.0 mm 54 W/m2
14:35 5.6 °C 1.5 °C 1044.4 hPa ESE 1.4 km/h 8 km/h 75% 0.0 mm 44 W/m2
14:41 5.6 °C 1.3 °C 1044.4 hPa Calm   8 km/h 74% 0.0 mm 39 W/m2
14:46 5.6 °C 1.3 °C 1044.4 hPa NE 9.7 km/h 12.9 km/h 74% 0.0 mm 35 W/m2
14:51 5.6 °C 1.3 °C 1044.0 hPa Calm   16.1 km/h 74% 0.0 mm 37 W/m2
14:56 5.6 °C 1.3 °C 1044.0 hPa NE 1.4 km/h 4.8 km/h 74% 0.0 mm 40 W/m2
15:01 5.6 °C 1.3 °C 1044.0 hPa NE 11.1 km/h 14.5 km/h 74% 0.0 mm 53 W/m2
15:06 5.7 °C 1.4 °C 1044.0 hPa NNW 9.7 km/h 14.5 km/h 74% 0.0 mm 49 W/m2
15:11 5.7 °C 1.6 °C 1044.0 hPa North 4.7 km/h 12.9 km/h 75% 0.0 mm 33 W/m2
15:16 5.6 °C 1.3 °C 1044.0 hPa NNE 9.7 km/h 11.3 km/h 74% 0.0 mm 32 W/m2
15:21 5.4 °C 1.1 °C 1044.0 hPa North 16.3 km/h 16.1 km/h 74% 0.0 mm 30 W/m2
15:26 5.4 °C 1.1 °C 1044.0 hPa North 9.7 km/h 16.1 km/h 74% 0.0 mm 30 W/m2
15:31 5.4 °C 1.3 °C 1044.0 hPa Calm   1.6 km/h 75% 0.0 mm 30 W/m2
15:36 5.3 °C 1.2 °C 1044.0 hPa NNW 7.9 km/h 14.5 km/h 75% 0.0 mm 30 W/m2
15:41 5.3 °C 1.2 °C 1044.0 hPa North 11.1 km/h 14.5 km/h 75% 0.0 mm 28 W/m2
15:46 5.3 °C 1.2 °C 1044.0 hPa NW 6.4 km/h 12.9 km/h 75% 0.0 mm 28 W/m2
15:51 5.3 °C 1.2 °C 1044.0 hPa NNE 4.7 km/h 9.7 km/h 75% 0.0 mm 26 W/m2
15:56 5.3 °C 1.2 °C 1044.0 hPa North 13 km/h 14.5 km/h 75% 0.0 mm 26 W/m2
16:01 5.3 °C 1.2 °C 1044.0 hPa Calm   3.2 km/h 75% 0.0 mm 26 W/m2
16:06 5.2 °C 1.1 °C 1044.0 hPa NNE 7.9 km/h 11.3 km/h 75% 0.0 mm 25 W/m2
16:11 5.2 °C 1.1 °C 1044.0 hPa NNE 4.7 km/h 9.7 km/h 75% 0.0 mm 23 W/m2
16:16 5.1 °C 1 °C 1044.0 hPa NE 9.7 km/h 12.9 km/h 75% 0.0 mm 21 W/m2
16:21 5.1 °C 1 °C 1044.0 hPa NE 4.7 km/h 12.9 km/h 75% 0.0 mm 21 W/m2
16:26 5 °C 0.9 °C 1043.7 hPa North 16.3 km/h 17.7 km/h 75% 0.0 mm 19 W/m2
16:31 4.9 °C 0.8 °C 1043.7 hPa Calm   6.4 km/h 75% 0.0 mm 18 W/m2
16:36 4.9 °C 0.8 °C 1043.7 hPa Calm   8 km/h 75% 0.0 mm 16 W/m2
16:41 4.8 °C 0.7 °C 1043.7 hPa NNE 1.4 km/h 6.4 km/h 75% 0.0 mm 16 W/m2
16:46 4.8 °C 0.7 °C 1043.7 hPa Calm   4.8 km/h 75% 0.0 mm 14 W/m2
16:51 4.6 °C 0.7 °C 1043.7 hPa Calm   8 km/h 76% 0.0 mm 12 W/m2
16:56 4.6 °C 0.7 °C 1043.7 hPa NNE 14.3 km/h 14.5 km/h 76% 0.0 mm 11 W/m2
17:01 4.4 °C 0.5 °C 1043.7 hPa NE 1.4 km/h 8 km/h 76% 0.0 mm 9 W/m2
17:06 4.3 °C 0.4 °C 1043.7 hPa NNW 6.4 km/h 14.5 km/h 76% 0.0 mm 5 W/m2
17:11 4.3 °C 0.4 °C 1043.3 hPa Calm   1.6 km/h 76% 0.0 mm 5 W/m2
17:16 4.2 °C 0.5 °C 1043.7 hPa Calm   9.7 km/h 77% 0.0 mm 0 W/m2
17:21 4.1 °C 0.4 °C 1043.7 hPa Calm   8 km/h 77% 0.0 mm 0 W/m2
17:26 3.9 °C 0.2 °C 1043.7 hPa Calm   1.6 km/h 77% 0.0 mm 0 W/m2
17:31 3.9 °C 0.4 °C 1043.7 hPa Calm   3.2 km/h 78% 0.0 mm 0 W/m2
17:36 3.8 °C 0.5 °C 1043.7 hPa Calm   11.3 km/h 79% 0.0 mm 0 W/m2
17:41 3.7 °C 0.4 °C 1043.7 hPa North 11.1 km/h 14.5 km/h 79% 0.0 mm 0 W/m2
17:46 3.6 °C 0.5 °C 1043.7 hPa Calm   9.7 km/h 80% 0.0 mm 0 W/m2
17:51 3.5 °C 0.4 °C 1043.7 hPa NNE 1.4 km/h 12.9 km/h 80% 0.0 mm 0 W/m2
17:56 3.3 °C 0.2 °C 1043.7 hPa NNE 3.2 km/h 11.3 km/h 80% 0.0 mm 0 W/m2
18:01 3.2 °C 0.3 °C 1043.7 hPa Calm   8 km/h 81% 0.0 mm 0 W/m2
18:06 3.1 °C 0.2 °C 1044.0 hPa NE 3.2 km/h 11.3 km/h 81% 0.0 mm 0 W/m2
18:11 3 °C 0.1 °C 1044.0 hPa Calm   3.2 km/h 81% 0.0 mm 0 W/m2
18:16 2.9 °C 0 °C 1044.0 hPa Calm   12.9 km/h 81% 0.0 mm 0 W/m2
18:21 2.8 °C 0 °C 1044.0 hPa Calm   1.6 km/h 82% 0.0 mm 0 W/m2
18:26 2.7 °C -0.1 °C 1044.0 hPa Calm   8 km/h 82% 0.0 mm 0 W/m2
18:31 2.7 °C -0.1 °C 1044.0 hPa Calm   1.6 km/h 82% 0.0 mm 0 W/m2
18:36 2.6 °C -0.2 °C 1044.0 hPa Calm   8 km/h 82% 0.0 mm 0 W/m2
18:41 2.4 °C -0.2 °C 1044.0 hPa NNW 3.2 km/h 3.2 km/h 83% 0.0 mm 0 W/m2
18:46 2.4 °C -0.2 °C 1044.0 hPa Calm   6.4 km/h 83% 0.0 mm 0 W/m2
18:51 2.3 °C -0.3 °C 1044.0 hPa Calm     83% 0.0 mm 0 W/m2
18:56 2.3 °C -0.3 °C 1044.0 hPa NNE 3.2 km/h 3.2 km/h 83% 0.0 mm 0 W/m2
19:01 2.2 °C -0.4 °C 1044.4 hPa NNE 1.4 km/h 1.6 km/h 83% 0.0 mm 0 W/m2
19:06 2.2 °C -0.2 °C 1044.4 hPa Calm     84% 0.0 mm 0 W/m2
19:11 2.1 °C -0.3 °C 1044.4 hPa Calm   3.2 km/h 84% 0.0 mm 0 W/m2
19:16 2.1 °C -0.3 °C 1044.4 hPa Calm   1.6 km/h 84% 0.0 mm 0 W/m2
19:21 2.1 °C -0.3 °C 1044.0 hPa Calm   4.8 km/h 84% 0.0 mm 0 W/m2
19:26 2 °C -0.4 °C 1044.0 hPa Calm   1.6 km/h 84% 0.0 mm 0 W/m2
19:31 1.9 °C -0.5 °C 1044.0 hPa Calm   4.8 km/h 84% 0.0 mm 0 W/m2
19:36 1.9 °C -0.5 °C 1044.0 hPa North 1.4 km/h 4.8 km/h 84% 0.0 mm 0 W/m2
19:41 1.9 °C -0.5 °C 1044.0 hPa Calm   3.2 km/h 84% 0.0 mm 0 W/m2
19:47 1.8 °C -0.6 °C 1044.0 hPa Calm   1.6 km/h 84% 0.0 mm 0 W/m2
19:52 1.8 °C -0.6 °C 1044.0 hPa Calm   1.6 km/h 84% 0.0 mm 0 W/m2
19:57 1.8 °C -0.6 °C 1044.0 hPa Calm   3.2 km/h 84% 0.0 mm 0 W/m2
20:02 1.7 °C -0.6 °C 1043.7 hPa Calm   4.8 km/h 85% 0.0 mm 0 W/m2
20:07 1.7 °C -0.6 °C 1044.0 hPa Calm     85% 0.0 mm 0 W/m2
20:12 1.7 °C -0.6 °C 1044.0 hPa Calm     85% 0.0 mm 0 W/m2
20:17 1.7 °C -0.6 °C 1043.7 hPa Calm     85% 0.0 mm 0 W/m2
20:22 1.6 °C -0.8 °C 1043.7 hPa Calm   3.2 km/h 84% 0.0 mm 0 W/m2
20:27 1.6 °C -0.6 °C 1044.0 hPa Calm     85% 0.0 mm 0 W/m2
20:32 1.4 °C -0.8 °C 1043.7 hPa Calm     85% 0.0 mm 0 W/m2
20:37 1.4 °C -0.8 °C 1044.0 hPa North 3.2 km/h 3.2 km/h 85% 0.0 mm 0 W/m2
20:42 1.4 °C -0.8 °C 1044.0 hPa Calm     85% 0.0 mm 0 W/m2
20:47 1.4 °C -0.8 °C 1044.0 hPa Calm     85% 0.0 mm 0 W/m2
20:52 1.4 °C -0.8 °C 1044.0 hPa Calm   6.4 km/h 85% 0.0 mm 0 W/m2
20:57 1.4 °C -0.8 °C 1044.0 hPa Calm   4.8 km/h 85% 0.0 mm 0 W/m2
21:02 1.3 °C -0.9 °C 1044.0 hPa Calm     85% 0.0 mm 0 W/m2
21:07 1.3 °C -0.8 °C 1043.7 hPa Calm   4.8 km/h 86% 0.0 mm 0 W/m2
21:12 1.2 °C -0.9 °C 1043.7 hPa Calm   3.2 km/h 86% 0.0 mm 0 W/m2
21:17 1.2 °C -0.9 °C 1043.7 hPa Calm     86% 0.0 mm 0 W/m2
21:22 1.1 °C -1 °C 1043.7 hPa Calm     86% 0.0 mm 0 W/m2
21:27 1.1 °C -0.8 °C 1043.7 hPa Calm   1.6 km/h 87% 0.0 mm 0 W/m2
21:32 1.1 °C -0.8 °C 1043.7 hPa Calm     87% 0.0 mm 0 W/m2
21:37 1 °C -1.1 °C 1043.7 hPa Calm     86% 0.0 mm 0 W/m2
21:42 0.9 °C -1.2 °C 1043.7 hPa Calm     86% 0.0 mm 0 W/m2
21:47 0.8 °C -1.1 °C 1043.7 hPa Calm     87% 0.0 mm 0 W/m2
21:52 0.7 °C -1.2 °C 1043.7 hPa Calm     87% 0.0 mm 0 W/m2
21:57 0.6 °C -1.3 °C 1043.3 hPa Calm     87% 0.0 mm 0 W/m2
22:02 0.7 °C -1.1 °C 1043.3 hPa Calm   1.6 km/h 88% 0.0 mm 0 W/m2
22:07 0.8 °C -1 °C 1043.3 hPa Calm     88% 0.0 mm 0 W/m2
22:12 0.8 °C -1 °C 1043.3 hPa Calm     88% 0.0 mm 0 W/m2
22:17 0.9 °C -0.9 °C 1043.3 hPa Calm     88% 0.0 mm 0 W/m2
22:23 0.9 °C -0.9 °C 1043.3 hPa Calm     88% 0.0 mm 0 W/m2
22:28 0.9 °C -0.9 °C 1043.3 hPa Calm     88% 0.0 mm 0 W/m2
22:33 0.9 °C -1 °C 1043.3 hPa Calm     87% 0.0 mm 0 W/m2
22:38 0.8 °C -1.1 °C 1043.3 hPa Calm     87% 0.0 mm 0 W/m2
22:43 0.7 °C -1.1 °C 1043.3 hPa Calm     88% 0.0 mm 0 W/m2
22:48 0.8 °C -1 °C 1043.3 hPa Calm     88% 0.0 mm 0 W/m2
22:53 0.8 °C -1 °C 1043.3 hPa Calm   3.2 km/h 88% 0.0 mm 0 W/m2
22:58 0.8 °C -1 °C 1043.3 hPa Calm     88% 0.0 mm 0 W/m2
23:03 0.8 °C -1.1 °C 1043.3 hPa Calm   1.6 km/h 87% 0.0 mm 0 W/m2
23:08 0.8 °C -1 °C 1043.3 hPa Calm     88% 0.0 mm 0 W/m2
23:13 0.8 °C -1 °C 1043.3 hPa Calm   1.6 km/h 88% 0.0 mm 0 W/m2
23:18 0.8 °C -1 °C 1043.3 hPa Calm     88% 0.0 mm 0 W/m2
23:23 0.9 °C -0.9 °C 1043.3 hPa Calm   1.6 km/h 88% 0.0 mm 0 W/m2
23:28 0.9 °C -1 °C 1043.3 hPa Calm     87% 0.0 mm 0 W/m2
23:33 0.9 °C -1 °C 1043.3 hPa Calm   6.4 km/h 87% 0.0 mm 0 W/m2
23:38 1 °C -0.9 °C 1043.3 hPa Calm     87% 0.0 mm 0 W/m2
23:43 1.1 °C -0.8 °C 1043.3 hPa Calm   6.4 km/h 87% 0.0 mm 0 W/m2
23:48 1.1 °C -0.8 °C 1043.3 hPa Calm     87% 0.0 mm 0 W/m2
23:53 0.8 °C -1.1 °C 1043.3 hPa Calm   4.8 km/h 87% 0.0 mm 0 W/m2
23:58 0.8 °C -1.1 °C 1043.3 hPa Calm     87% 0.0 mm 0 W/m2
Juneau County Weather
Compliments of Weather Underground - 4 mb